首页
METAR-TAF:

METAR-TAF

机场 :

Lincoln Airport

林肯, 內布拉斯加州, 美国

纬度: 40-49-52N, 经度: 096-45-52W, 海拔: 370米

当前天气观测

该预报发布于28分钟前的23:54 UTC
风速6节,风向北转东北
温度 24°C
湿度 44%
气压 1020 hPa
能見度: 14.5公里
少量云层高于5000英尺
多云层高于7500英尺

METAR: KLNK 032354Z 03006KT 9SM FEW050 BKN075 24/11 A3013 RMK AO2 SLP196 T02390111 10244 20222 56009

时间: 19:22 (00:22 UTC)

预报

该预报发布于1小时和2分钟前的23:20 UTC
预报有效从04日的 00点(UTC)到 04日的 24点(UTC)
风速6节,风向
能見度: 10公里
少量云层高于5000英尺
从 04日的 1400点(UTC)
风速5节,风向东南
能見度: 10公里
天空无云
从 04日的 1700点(UTC)
风速9节,风向南转南东
能見度: 10公里
多云层高于4500英尺

TAF: KLNK 032320Z 0400/0424 09006KT P6SM FEW050 FM041400 13005KT P6SM SKC FM041700 15009KT P6SM BKN045

超过4000个机场的气象观测和天气预报(METAR&TAF报告)。

可查询的气象台以黄色和红色小点在地图上表示。

将鼠标移到小点上方,可查看气象台名称。

然后点击查看天气观测和预报。

如需切换地图:点击带黑十字的绿色按钮放大地图;点击带横线的绿色按钮缩小地图;或者点击绿色箭头查看邻近地区的地图。


METAR-TAF: